VOZ851 YMML-YSSY
Flight info
| Callsign | VOZ851 |
|---|---|
| Flight time | 1h 6m |
| Altitude | 37000 |
| Route | DOSEL Y59 RIVET |
| Aircraft | B738/M-SDFGHIRWZ/LB1 |
Departure
| Time | 2026-05-08 04:50 |
|---|---|
| Airport | Melbourne Airport (YMML) |
Arrival
| Time | 2026-05-08 05:56 |
|---|---|
| Airport | Sydney Kingsford Smith International Airport (YSSY) |
| Time | Latitude | Longitude | Altitude | Speed | Heading |
|---|---|---|---|---|---|
| 2026-05-08 03:55 | -37.67076 | 144.84574 | 388 ft | 0 kts | 172° |
| 2026-05-08 04:39 | -37.67074 | 144.84574 | 388 ft | 2 kts | 172° |
| 2026-05-08 04:39 | -37.67048 | 144.84570 | 388 ft | 4 kts | 175° |
| 2026-05-08 04:39 | -37.67022 | 144.84571 | 389 ft | 4 kts | 205° |
| 2026-05-08 04:40 | -37.67011 | 144.84583 | 389 ft | 3 kts | 261° |
| 2026-05-08 04:40 | -37.67014 | 144.84560 | 389 ft | 2 kts | 266° |
| 2026-05-08 04:40 | -37.67014 | 144.84559 | 389 ft | 1 kts | 266° |
| 2026-05-08 04:43 | -37.67015 | 144.84540 | 389 ft | 5 kts | 266° |
| 2026-05-08 04:43 | -37.67029 | 144.84458 | 387 ft | 14 kts | 243° |
| 2026-05-08 04:43 | -37.67058 | 144.84316 | 385 ft | 18 kts | 267° |
| 2026-05-08 04:43 | -37.66974 | 144.84227 | 385 ft | 18 kts | 354° |
| 2026-05-08 04:44 | -37.66853 | 144.84204 | 389 ft | 17 kts | 351° |
| 2026-05-08 04:44 | -37.66746 | 144.84155 | 393 ft | 17 kts | 313° |
| 2026-05-08 04:44 | -37.66719 | 144.84021 | 387 ft | 16 kts | 278° |
| 2026-05-08 04:44 | -37.66634 | 144.83953 | 398 ft | 15 kts | 349° |
| 2026-05-08 04:45 | -37.66531 | 144.83935 | 402 ft | 15 kts | 353° |
| 2026-05-08 04:45 | -37.66432 | 144.83917 | 407 ft | 14 kts | 351° |
| 2026-05-08 04:45 | -37.66349 | 144.83957 | 409 ft | 14 kts | 64° |
| 2026-05-08 04:45 | -37.66346 | 144.84083 | 409 ft | 15 kts | 94° |
| 2026-05-08 04:46 | -37.66354 | 144.84227 | 409 ft | 18 kts | 94° |
| 2026-05-08 04:46 | -37.66364 | 144.84391 | 408 ft | 20 kts | 94° |
| 2026-05-08 04:46 | -37.66376 | 144.84580 | 409 ft | 23 kts | 95° |
| 2026-05-08 04:46 | -37.66362 | 144.84773 | 410 ft | 23 kts | 38° |
| 2026-05-08 04:47 | -37.66245 | 144.84794 | 412 ft | 9 kts | 351° |
| 2026-05-08 04:47 | -37.66226 | 144.84768 | 412 ft | 1 kts | 270° |
| 2026-05-08 04:47 | -37.66225 | 144.84763 | 412 ft | 0 kts | 275° |
| 2026-05-08 04:49 | -37.66224 | 144.84748 | 412 ft | 5 kts | 275° |
| 2026-05-08 04:49 | -37.66208 | 144.84471 | 410 ft | 68 kts | 274° |
| 2026-05-08 04:49 | -37.66158 | 144.83583 | 415 ft | 133 kts | 274° |
| 2026-05-08 04:49 | -37.66039 | 144.82229 | 626 ft | 167 kts | 270° |
| 2026-05-08 04:50 | -37.65933 | 144.80738 | 1341 ft | 175 kts | 269° |
| 2026-05-08 04:50 | -37.65858 | 144.79167 | 2093 ft | 188 kts | 268° |
| 2026-05-08 04:50 | -37.65778 | 144.77425 | 2313 ft | 214 kts | 269° |
| 2026-05-08 04:50 | -37.65681 | 144.75505 | 2920 ft | 225 kts | 268° |
| 2026-05-08 04:51 | -37.65571 | 144.73458 | 3433 ft | 242 kts | 268° |
| 2026-05-08 04:51 | -37.65456 | 144.71315 | 4268 ft | 246 kts | 268° |
| 2026-05-08 04:51 | -37.65319 | 144.69143 | 5131 ft | 253 kts | 273° |
| 2026-05-08 04:51 | -37.64642 | 144.67019 | 5871 ft | 272 kts | 299° |
| 2026-05-08 04:52 | -37.63304 | 144.65219 | 6520 ft | 294 kts | 319° |
| 2026-05-08 04:52 | -37.61414 | 144.64068 | 7183 ft | 310 kts | 339° |
| 2026-05-08 04:52 | -37.59327 | 144.63308 | 7775 ft | 318 kts | 340° |
| 2026-05-08 04:52 | -37.57210 | 144.62567 | 8782 ft | 313 kts | 345° |
| 2026-05-08 04:53 | -37.55020 | 144.62510 | 9590 ft | 322 kts | 13° |
| 2026-05-08 04:53 | -37.52985 | 144.63679 | 10291 ft | 326 kts | 40° |
| 2026-05-08 04:53 | -37.51383 | 144.65775 | 10541 ft | 342 kts | 57° |
| 2026-05-08 04:53 | -37.49923 | 144.68251 | 10859 ft | 359 kts | 58° |
| 2026-05-08 04:54 | -37.48428 | 144.70823 | 11536 ft | 362 kts | 57° |
| 2026-05-08 04:54 | -37.46965 | 144.73386 | 12452 ft | 359 kts | 60° |
| 2026-05-08 04:54 | -37.45660 | 144.76079 | 13208 ft | 362 kts | 64° |
| 2026-05-08 04:54 | -37.44410 | 144.78870 | 13827 ft | 369 kts | 65° |
| 2026-05-08 04:55 | -37.43157 | 144.81710 | 14485 ft | 373 kts | 65° |
| 2026-05-08 04:55 | -37.41887 | 144.84571 | 15141 ft | 376 kts | 64° |
| 2026-05-08 04:55 | -37.40610 | 144.87416 | 15793 ft | 380 kts | 64° |
| 2026-05-08 04:55 | -37.39295 | 144.90316 | 16436 ft | 384 kts | 64° |
| 2026-05-08 04:56 | -37.37960 | 144.93237 | 17053 ft | 388 kts | 64° |
| 2026-05-08 04:56 | -37.36607 | 144.96185 | 17699 ft | 391 kts | 63° |
| 2026-05-08 04:56 | -37.35237 | 144.99161 | 18339 ft | 395 kts | 63° |
| 2026-05-08 04:56 | -37.33856 | 145.02154 | 18892 ft | 399 kts | 63° |
| 2026-05-08 04:57 | -37.32455 | 145.05189 | 19420 ft | 402 kts | 63° |
| 2026-05-08 04:57 | -37.31045 | 145.08237 | 19998 ft | 405 kts | 63° |
| 2026-05-08 04:57 | -37.29624 | 145.11309 | 20560 ft | 407 kts | 63° |
| 2026-05-08 04:57 | -37.28196 | 145.14393 | 21094 ft | 411 kts | 63° |
| 2026-05-08 04:58 | -37.26752 | 145.17509 | 21605 ft | 414 kts | 63° |
| 2026-05-08 04:58 | -37.25298 | 145.20644 | 22140 ft | 417 kts | 62° |
| 2026-05-08 04:58 | -37.23835 | 145.23797 | 22647 ft | 420 kts | 62° |
| 2026-05-08 04:58 | -37.22358 | 145.26975 | 23165 ft | 423 kts | 62° |
| 2026-05-08 04:59 | -37.20868 | 145.30177 | 23671 ft | 426 kts | 62° |
| 2026-05-08 04:59 | -37.19362 | 145.33416 | 23915 ft | 435 kts | 62° |
| 2026-05-08 04:59 | -37.17817 | 145.36733 | 24088 ft | 444 kts | 62° |
| 2026-05-08 04:59 | -37.16237 | 145.40092 | 24464 ft | 448 kts | 60° |
| 2026-05-08 05:00 | -37.14536 | 145.43314 | 24921 ft | 449 kts | 58° |
| 2026-05-08 05:00 | -37.12710 | 145.46508 | 25321 ft | 452 kts | 56° |
| 2026-05-08 05:00 | -37.10834 | 145.49693 | 25667 ft | 456 kts | 56° |
| 2026-05-08 05:00 | -37.08937 | 145.52893 | 26061 ft | 459 kts | 56° |
| 2026-05-08 05:01 | -37.07041 | 145.56110 | 26476 ft | 460 kts | 56° |
| 2026-05-08 05:01 | -37.05147 | 145.59350 | 26873 ft | 461 kts | 57° |
| 2026-05-08 05:01 | -37.03255 | 145.62609 | 27228 ft | 464 kts | 57° |
| 2026-05-08 05:01 | -37.01355 | 145.65894 | 27562 ft | 467 kts | 57° |
| 2026-05-08 05:02 | -36.99447 | 145.69200 | 27854 ft | 470 kts | 57° |
| 2026-05-08 05:02 | -36.97529 | 145.72525 | 28187 ft | 473 kts | 57° |
| 2026-05-08 05:02 | -36.95598 | 145.75868 | 28549 ft | 474 kts | 57° |
| 2026-05-08 05:02 | -36.93662 | 145.79217 | 28902 ft | 476 kts | 57° |
| 2026-05-08 05:03 | -36.91715 | 145.82580 | 29224 ft | 479 kts | 57° |
| 2026-05-08 05:03 | -36.89756 | 145.85959 | 29530 ft | 482 kts | 57° |
| 2026-05-08 05:03 | -36.87782 | 145.89360 | 29824 ft | 484 kts | 57° |
| 2026-05-08 05:03 | -36.85804 | 145.92766 | 30118 ft | 486 kts | 57° |
| 2026-05-08 05:04 | -36.83815 | 145.96185 | 30386 ft | 488 kts | 57° |
| 2026-05-08 05:04 | -36.81818 | 145.99614 | 30620 ft | 489 kts | 57° |
| 2026-05-08 05:04 | -36.79814 | 146.03052 | 30923 ft | 489 kts | 57° |
| 2026-05-08 05:04 | -36.77813 | 146.06480 | 31318 ft | 488 kts | 57° |
| 2026-05-08 05:05 | -36.75818 | 146.09895 | 31688 ft | 486 kts | 57° |
| 2026-05-08 05:05 | -36.73828 | 146.13299 | 31961 ft | 487 kts | 57° |
| 2026-05-08 05:05 | -36.71826 | 146.16721 | 32216 ft | 488 kts | 57° |
| 2026-05-08 05:05 | -36.69854 | 146.20089 | 32536 ft | 487 kts | 57° |
| 2026-05-08 05:06 | -36.67860 | 146.23490 | 32881 ft | 485 kts | 57° |
| 2026-05-08 05:06 | -36.65868 | 146.26882 | 33220 ft | 484 kts | 57° |
| 2026-05-08 05:06 | -36.63879 | 146.30268 | 33525 ft | 484 kts | 57° |
| 2026-05-08 05:06 | -36.61889 | 146.33652 | 33803 ft | 484 kts | 57° |
| 2026-05-08 05:07 | -36.59900 | 146.37032 | 34087 ft | 484 kts | 57° |
| 2026-05-08 05:07 | -36.57909 | 146.40411 | 34383 ft | 482 kts | 57° |
| 2026-05-08 05:07 | -36.55926 | 146.43773 | 34655 ft | 481 kts | 57° |
| 2026-05-08 05:07 | -36.53945 | 146.47128 | 34884 ft | 481 kts | 57° |
| 2026-05-08 05:08 | -36.51964 | 146.50480 | 35099 ft | 481 kts | 57° |
| 2026-05-08 05:08 | -36.49983 | 146.53830 | 35334 ft | 480 kts | 56° |
| 2026-05-08 05:08 | -36.48672 | 146.56044 | 35484 ft | 480 kts | 56° |
| 2026-05-08 05:08 | -36.46693 | 146.59384 | 35722 ft | 479 kts | 56° |
| 2026-05-08 05:09 | -36.44052 | 146.63837 | 36018 ft | 479 kts | 56° |
| 2026-05-08 05:09 | -36.42745 | 146.66038 | 36166 ft | 478 kts | 56° |
| 2026-05-08 05:09 | -36.40772 | 146.69358 | 36413 ft | 477 kts | 56° |
| 2026-05-08 05:09 | -36.38167 | 146.73736 | 36722 ft | 476 kts | 55° |
| 2026-05-08 05:10 | -36.36202 | 146.77036 | 36913 ft | 475 kts | 55° |
| 2026-05-08 05:10 | -36.32266 | 146.83635 | 37175 ft | 475 kts | 55° |
| 2026-05-08 05:11 | -36.28966 | 146.89160 | 37195 ft | 477 kts | 55° |
| 2026-05-08 05:11 | -36.25035 | 146.95728 | 37194 ft | 478 kts | 55° |
| 2026-05-08 05:12 | -36.21063 | 147.02354 | 37177 ft | 479 kts | 54° |
| 2026-05-08 05:12 | -36.17085 | 147.08975 | 37188 ft | 479 kts | 54° |
| 2026-05-08 05:13 | -36.13096 | 147.15595 | 37185 ft | 480 kts | 54° |
| 2026-05-08 05:13 | -36.09073 | 147.22259 | 37191 ft | 480 kts | 54° |
| 2026-05-08 05:14 | -36.05097 | 147.28834 | 37177 ft | 480 kts | 54° |
| 2026-05-08 05:14 | -36.01101 | 147.35434 | 37188 ft | 479 kts | 54° |
| 2026-05-08 05:15 | -35.97098 | 147.42033 | 37198 ft | 479 kts | 54° |
| 2026-05-08 05:15 | -35.93098 | 147.48612 | 37195 ft | 479 kts | 54° |
| 2026-05-08 05:16 | -35.89096 | 147.55185 | 37191 ft | 479 kts | 54° |
| 2026-05-08 05:16 | -35.85091 | 147.61750 | 37198 ft | 479 kts | 54° |
| 2026-05-08 05:17 | -35.81082 | 147.68304 | 37200 ft | 479 kts | 54° |
| 2026-05-08 05:17 | -35.77064 | 147.74857 | 37189 ft | 479 kts | 54° |
| 2026-05-08 05:18 | -35.73047 | 147.81400 | 37199 ft | 479 kts | 54° |
| 2026-05-08 05:18 | -35.69028 | 147.87936 | 37192 ft | 479 kts | 53° |
| 2026-05-08 05:19 | -35.65024 | 147.94435 | 37193 ft | 480 kts | 53° |
| 2026-05-08 05:19 | -35.60988 | 148.00974 | 37197 ft | 480 kts | 53° |
| 2026-05-08 05:20 | -35.56938 | 148.07525 | 37196 ft | 481 kts | 53° |
| 2026-05-08 05:20 | -35.52883 | 148.14069 | 37203 ft | 482 kts | 53° |
| 2026-05-08 05:21 | -35.48816 | 148.20622 | 37208 ft | 482 kts | 53° |
| 2026-05-08 05:21 | -35.44740 | 148.27178 | 37192 ft | 484 kts | 53° |
| 2026-05-08 05:22 | -35.40649 | 148.33746 | 37198 ft | 485 kts | 53° |
| 2026-05-08 05:22 | -35.36548 | 148.40308 | 37189 ft | 485 kts | 52° |
| 2026-05-08 05:23 | -35.32460 | 148.46840 | 37190 ft | 486 kts | 52° |
| 2026-05-08 05:23 | -35.28331 | 148.53427 | 37182 ft | 488 kts | 52° |
| 2026-05-08 05:24 | -35.24191 | 148.60021 | 37183 ft | 489 kts | 52° |
| 2026-05-08 05:24 | -35.20035 | 148.66627 | 37171 ft | 490 kts | 52° |
| 2026-05-08 05:25 | -35.15870 | 148.73236 | 37166 ft | 491 kts | 52° |
| 2026-05-08 05:25 | -35.11689 | 148.79858 | 37192 ft | 492 kts | 52° |
| 2026-05-08 05:26 | -35.07500 | 148.86481 | 37179 ft | 493 kts | 52° |
| 2026-05-08 05:26 | -35.03302 | 148.93103 | 37170 ft | 493 kts | 52° |
| 2026-05-08 05:27 | -34.99097 | 148.99725 | 36854 ft | 498 kts | 52° |
| 2026-05-08 05:27 | -34.96964 | 149.03078 | 36344 ft | 499 kts | 52° |
| 2026-05-08 05:27 | -34.94865 | 149.06375 | 35789 ft | 498 kts | 53° |
| 2026-05-08 05:27 | -34.92737 | 149.09717 | 35168 ft | 500 kts | 53° |
| 2026-05-08 05:28 | -34.90604 | 149.13062 | 34536 ft | 501 kts | 53° |
| 2026-05-08 05:28 | -34.88457 | 149.16426 | 33836 ft | 504 kts | 53° |
| 2026-05-08 05:28 | -34.86300 | 149.19803 | 33105 ft | 505 kts | 53° |
| 2026-05-08 05:28 | -34.84142 | 149.23179 | 32421 ft | 506 kts | 53° |
| 2026-05-08 05:29 | -34.81977 | 149.26562 | 31710 ft | 507 kts | 52° |
| 2026-05-08 05:29 | -34.79812 | 149.29941 | 31213 ft | 503 kts | 52° |
| 2026-05-08 05:29 | -34.77668 | 149.33285 | 30719 ft | 500 kts | 52° |
| 2026-05-08 05:29 | -34.75530 | 149.36616 | 30189 ft | 496 kts | 52° |
| 2026-05-08 05:30 | -34.73491 | 149.39983 | 29614 ft | 492 kts | 58° |
| 2026-05-08 05:30 | -34.71813 | 149.43586 | 29143 ft | 486 kts | 63° |
| 2026-05-08 05:30 | -34.70265 | 149.47216 | 28605 ft | 482 kts | 64° |
| 2026-05-08 05:30 | -34.68748 | 149.50833 | 28098 ft | 477 kts | 64° |
| 2026-05-08 05:31 | -34.67259 | 149.54357 | 27611 ft | 474 kts | 64° |
| 2026-05-08 05:31 | -34.65745 | 149.57896 | 27099 ft | 470 kts | 64° |
| 2026-05-08 05:31 | -34.64225 | 149.61403 | 26607 ft | 467 kts | 64° |
| 2026-05-08 05:31 | -34.62711 | 149.64869 | 26104 ft | 463 kts | 64° |
| 2026-05-08 05:32 | -34.61201 | 149.68313 | 25608 ft | 460 kts | 63° |
| 2026-05-08 05:32 | -34.59698 | 149.71731 | 25119 ft | 457 kts | 64° |
| 2026-05-08 05:32 | -34.58207 | 149.75123 | 24636 ft | 454 kts | 64° |
| 2026-05-08 05:32 | -34.56724 | 149.78495 | 24169 ft | 452 kts | 64° |
| 2026-05-08 05:33 | -34.55249 | 149.81848 | 23683 ft | 449 kts | 64° |
| 2026-05-08 05:33 | -34.53780 | 149.85185 | 23119 ft | 446 kts | 64° |
| 2026-05-08 05:33 | -34.52324 | 149.88493 | 22605 ft | 443 kts | 64° |
| 2026-05-08 05:33 | -34.50878 | 149.91771 | 22137 ft | 439 kts | 65° |
| 2026-05-08 05:34 | -34.49439 | 149.95027 | 21656 ft | 436 kts | 65° |
| 2026-05-08 05:34 | -34.48012 | 149.98249 | 21189 ft | 432 kts | 65° |
| 2026-05-08 05:34 | -34.46594 | 150.01447 | 20724 ft | 429 kts | 65° |
| 2026-05-08 05:34 | -34.45204 | 150.04581 | 20275 ft | 427 kts | 65° |
| 2026-05-08 05:35 | -34.43805 | 150.07737 | 19796 ft | 424 kts | 65° |
| 2026-05-08 05:35 | -34.42412 | 150.10874 | 19333 ft | 422 kts | 65° |
| 2026-05-08 05:35 | -34.41023 | 150.13993 | 18877 ft | 420 kts | 65° |
| 2026-05-08 05:35 | -34.39644 | 150.17096 | 18415 ft | 418 kts | 65° |
| 2026-05-08 05:36 | -34.38269 | 150.20193 | 17893 ft | 416 kts | 64° |
| 2026-05-08 05:36 | -34.36899 | 150.23270 | 17396 ft | 414 kts | 64° |
| 2026-05-08 05:36 | -34.35539 | 150.26324 | 16926 ft | 411 kts | 64° |
| 2026-05-08 05:36 | -34.34184 | 150.29360 | 16454 ft | 408 kts | 64° |
| 2026-05-08 05:37 | -34.32838 | 150.32377 | 15988 ft | 405 kts | 64° |
| 2026-05-08 05:37 | -34.31507 | 150.35361 | 15563 ft | 402 kts | 64° |
| 2026-05-08 05:37 | -34.30179 | 150.38328 | 15108 ft | 400 kts | 64° |
| 2026-05-08 05:37 | -34.28856 | 150.41283 | 14667 ft | 397 kts | 64° |
| 2026-05-08 05:38 | -34.27540 | 150.44212 | 14248 ft | 395 kts | 64° |
| 2026-05-08 05:38 | -34.26240 | 150.47116 | 13873 ft | 392 kts | 64° |
| 2026-05-08 05:38 | -34.24962 | 150.49976 | 13378 ft | 390 kts | 64° |
| 2026-05-08 05:38 | -34.23679 | 150.52851 | 12913 ft | 388 kts | 64° |
| 2026-05-08 05:39 | -34.22399 | 150.55713 | 12453 ft | 385 kts | 64° |
| 2026-05-08 05:39 | -34.21129 | 150.58549 | 12006 ft | 383 kts | 64° |
| 2026-05-08 05:39 | -34.19862 | 150.61375 | 11540 ft | 380 kts | 64° |
| 2026-05-08 05:39 | -34.18605 | 150.64173 | 11093 ft | 378 kts | 63° |
| 2026-05-08 05:40 | -34.17355 | 150.66955 | 10634 ft | 376 kts | 64° |
| 2026-05-08 05:40 | -34.16122 | 150.69692 | 10458 ft | 366 kts | 64° |
| 2026-05-08 05:40 | -34.14919 | 150.72363 | 10259 ft | 358 kts | 63° |
| 2026-05-08 05:40 | -34.13734 | 150.74996 | 10046 ft | 355 kts | 64° |
| 2026-05-08 05:41 | -34.12552 | 150.77625 | 9690 ft | 358 kts | 64° |
| 2026-05-08 05:41 | -34.11359 | 150.80269 | 9310 ft | 359 kts | 64° |
| 2026-05-08 05:41 | -34.10164 | 150.82913 | 8949 ft | 360 kts | 65° |
| 2026-05-08 05:41 | -34.08968 | 150.85565 | 8637 ft | 359 kts | 65° |
| 2026-05-08 05:42 | -34.07781 | 150.88203 | 8353 ft | 356 kts | 65° |
| 2026-05-08 05:42 | -34.06603 | 150.90817 | 8062 ft | 352 kts | 65° |
| 2026-05-08 05:42 | -34.05443 | 150.93392 | 7765 ft | 347 kts | 65° |
| 2026-05-08 05:42 | -34.04298 | 150.95930 | 7479 ft | 343 kts | 64° |
| 2026-05-08 05:43 | -34.03163 | 150.98448 | 7197 ft | 340 kts | 65° |
| 2026-05-08 05:43 | -34.02213 | 151.00989 | 6921 ft | 333 kts | 79° |
| 2026-05-08 05:43 | -34.01796 | 151.03697 | 6675 ft | 326 kts | 86° |
| 2026-05-08 05:43 | -34.01488 | 151.06395 | 6414 ft | 322 kts | 87° |
| 2026-05-08 05:44 | -34.01229 | 151.09050 | 6072 ft | 316 kts | 91° |
| 2026-05-08 05:44 | -34.01084 | 151.11675 | 5743 ft | 311 kts | 92° |
| 2026-05-08 05:44 | -34.00968 | 151.14269 | 5414 ft | 308 kts | 92° |
| 2026-05-08 05:44 | -34.00856 | 151.16814 | 5111 ft | 298 kts | 93° |
| 2026-05-08 05:45 | -34.00739 | 151.19261 | 4882 ft | 287 kts | 93° |
| 2026-05-08 05:45 | -34.00615 | 151.21619 | 4617 ft | 276 kts | 92° |
| 2026-05-08 05:45 | -34.00500 | 151.23882 | 4378 ft | 266 kts | 92° |
| 2026-05-08 05:45 | -34.00399 | 151.26076 | 4138 ft | 260 kts | 92° |
| 2026-05-08 05:46 | -34.00301 | 151.28251 | 4015 ft | 257 kts | 92° |
| 2026-05-08 05:46 | -34.00204 | 151.30356 | 3999 ft | 245 kts | 92° |
| 2026-05-08 05:46 | -34.00110 | 151.32348 | 3982 ft | 237 kts | 92° |
| 2026-05-08 05:46 | -34.00018 | 151.34321 | 3878 ft | 236 kts | 94° |
| 2026-05-08 05:47 | -33.99928 | 151.36307 | 3762 ft | 239 kts | 93° |
| 2026-05-08 05:47 | -33.99834 | 151.38318 | 3665 ft | 241 kts | 92° |
| 2026-05-08 05:47 | -33.99748 | 151.40350 | 3558 ft | 243 kts | 92° |
| 2026-05-08 05:47 | -33.99672 | 151.42377 | 3437 ft | 242 kts | 91° |
| 2026-05-08 05:48 | -33.99594 | 151.44403 | 3313 ft | 241 kts | 92° |
| 2026-05-08 05:48 | -33.99528 | 151.46413 | 3228 ft | 239 kts | 94° |
| 2026-05-08 05:48 | -33.99228 | 151.48389 | 3151 ft | 246 kts | 64° |
| 2026-05-08 05:48 | -33.98087 | 151.49944 | 3064 ft | 251 kts | 31° |
| 2026-05-08 05:49 | -33.96511 | 151.50593 | 2991 ft | 229 kts | 354° |
| 2026-05-08 05:49 | -33.95078 | 151.50200 | 2983 ft | 201 kts | 322° |
| 2026-05-08 05:49 | -33.94001 | 151.49220 | 2966 ft | 189 kts | 303° |
| 2026-05-08 05:49 | -33.93308 | 151.47947 | 2970 ft | 182 kts | 287° |
| 2026-05-08 05:50 | -33.92771 | 151.46556 | 2981 ft | 184 kts | 287° |
| 2026-05-08 05:50 | -33.92228 | 151.45160 | 2983 ft | 184 kts | 288° |
| 2026-05-08 05:50 | -33.91683 | 151.43764 | 2979 ft | 184 kts | 288° |
| 2026-05-08 05:50 | -33.91143 | 151.42379 | 2971 ft | 181 kts | 287° |
| 2026-05-08 05:51 | -33.90612 | 151.41018 | 2960 ft | 178 kts | 287° |
| 2026-05-08 05:51 | -33.90088 | 151.39674 | 2967 ft | 177 kts | 287° |
| 2026-05-08 05:51 | -33.89581 | 151.38313 | 2964 ft | 177 kts | 280° |
| 2026-05-08 05:51 | -33.89640 | 151.36926 | 2990 ft | 166 kts | 246° |
| 2026-05-08 05:52 | -33.89960 | 151.35563 | 2843 ft | 173 kts | 258° |
| 2026-05-08 05:52 | -33.90175 | 151.34151 | 2619 ft | 169 kts | 251° |
| 2026-05-08 05:52 | -33.90499 | 151.32816 | 2393 ft | 163 kts | 251° |
| 2026-05-08 05:52 | -33.90800 | 151.31556 | 2194 ft | 150 kts | 252° |
| 2026-05-08 05:53 | -33.91070 | 151.30411 | 1984 ft | 138 kts | 253° |
| 2026-05-08 05:53 | -33.91320 | 151.29346 | 1830 ft | 130 kts | 253° |
| 2026-05-08 05:53 | -33.91563 | 151.28312 | 1669 ft | 127 kts | 253° |
| 2026-05-08 05:53 | -33.91803 | 151.27287 | 1487 ft | 125 kts | 253° |
| 2026-05-08 05:54 | -33.92039 | 151.26283 | 1308 ft | 122 kts | 254° |
| 2026-05-08 05:54 | -33.92268 | 151.25309 | 1139 ft | 120 kts | 251° |
| 2026-05-08 05:54 | -33.92493 | 151.24360 | 1002 ft | 120 kts | 254° |
| 2026-05-08 05:54 | -33.92721 | 151.23386 | 809 ft | 123 kts | 255° |
| 2026-05-08 05:55 | -33.92957 | 151.22369 | 653 ft | 133 kts | 254° |
| 2026-05-08 05:55 | -33.93208 | 151.21275 | 451 ft | 137 kts | 253° |
| 2026-05-08 05:55 | -33.93472 | 151.20182 | 301 ft | 134 kts | 255° |
| 2026-05-08 05:55 | -33.93731 | 151.19133 | 101 ft | 130 kts | 254° |
| 2026-05-08 05:56 | -33.93962 | 151.18117 | 29 ft | 116 kts | 254° |
| 2026-05-08 05:56 | -33.94124 | 151.17425 | 26 ft | 53 kts | 254° |
| 2026-05-08 05:56 | -33.94204 | 151.17088 | 28 ft | 38 kts | 254° |
| 2026-05-08 05:56 | -33.94239 | 151.16903 | 27 ft | 19 kts | 273° |
| 2026-05-08 05:57 | -33.94148 | 151.16841 | 28 ft | 16 kts | 348° |
| 2026-05-08 05:57 | -33.94054 | 151.16870 | 29 ft | 15 kts | 62° |
| 2026-05-08 05:57 | -33.94027 | 151.16986 | 29 ft | 14 kts | 74° |
| 2026-05-08 05:57 | -33.94001 | 151.17097 | 29 ft | 14 kts | 73° |
| 2026-05-08 05:58 | -33.93972 | 151.17219 | 28 ft | 17 kts | 74° |
| 2026-05-08 05:58 | -33.93948 | 151.17319 | 26 ft | 21 kts | 74° |
| 2026-05-08 05:58 | -33.93903 | 151.17508 | 27 ft | 25 kts | 74° |
| 2026-05-08 05:58 | -33.93855 | 151.17710 | 28 ft | 24 kts | 74° |
| 2026-05-08 05:59 | -33.93810 | 151.17900 | 29 ft | 23 kts | 74° |
| 2026-05-08 05:59 | -33.93763 | 151.18055 | 29 ft | 17 kts | 37° |
| 2026-05-08 05:59 | -33.93663 | 151.18050 | 29 ft | 12 kts | 0° |
| 2026-05-08 05:59 | -33.93638 | 151.18007 | 29 ft | 2 kts | 277° |
| 2026-05-08 06:00 | -33.93636 | 151.17990 | 29 ft | 1 kts | 279° |
| 2026-05-08 06:00 | -33.93636 | 151.17989 | 29 ft | 0 kts | 279° |